Time;durP1;ratioP1;P1;durP2;ratioP2;P2;SDS_P1;SDS_P2;PMS_P1;PMS_P2;Temp;Humidity;BMP_temperature;BMP_pressure;BME280_temperature;BME280_humidity;BME280_pressure;Samples;Min_cycle;Max_cycle;Signal;HPM_P1;HPM_P2
2022/06/15 09:39:03;;;;;;;5.30;1.52;;;;;;;26.29;38.03;100736.53;1867560;76;26838;-68
2022/06/15 09:41:59;;;;;;;3.33;1.40;;;;;;;26.04;38.50;100735.29;1824186;78;25607;-68
2022/06/15 09:44:34;;;;;;;2.55;1.30;;;;;;;25.76;38.58;100736.98;1824181;78;27515;-66
2022/06/15 09:47:27;;;;;;;2.45;1.20;;;;;;;25.33;38.45;100748.19;1824231;78;25600;-66
2022/06/15 09:50:11;;;;;;;3.62;1.40;;;;;;;24.93;39.06;100737.77;1822666;78;25442;-67
2022/06/15 09:53:01;;;;;;;3.80;1.40;;;;;;;24.62;39.37;100747.06;1822433;78;25710;-68
2022/06/15 09:55:41;;;;;;;2.37;1.15;;;;;;;24.29;39.50;100747.56;1824025;78;25538;-68
2022/06/15 09:58:16;;;;;;;4.12;1.27;;;;;;;23.97;39.99;100744.72;1824306;78;27275;-68
2022/06/15 10:00:45;;;;;;;3.87;1.55;;;;;;;23.80;40.21;100752.54;1824174;78;25588;-68
2022/06/15 10:03:19;;;;;;;;;;;;;;;23.67;41.05;100747.16;1826931;78;25684;-69
2022/06/15 10:05:49;;;;;;;2.92;1.30;;;;;;;23.71;41.37;100742.42;1823816;78;25451;-67
2022/06/15 10:08:16;;;;;;;4.72;1.42;;;;;;;24.07;42.15;100736.27;1824054;78;25533;-67
2022/06/15 10:10:56;;;;;;;2.72;1.70;;;;;;;24.54;42.16;100731.05;1823693;78;27514;-67
2022/06/15 10:13:28;;;;;;;2.58;1.35;;;;;;;25.06;41.16;100741.68;1824084;78;25808;-67
2022/06/15 10:16:23;;;;;;;4.00;1.32;;;;;;;25.05;39.64;100744.27;1823968;78;25652;-67
2022/06/15 10:18:59;;;;;;;4.08;1.70;;;;;;;25.02;39.63;100744.28;1823989;78;25279;-68
2022/06/15 10:21:31;;;;;;;1.95;1.62;;;;;;;24.96;39.94;100747.45;1823845;78;25649;-68
2022/06/15 10:24:15;;;;;;;3.10;1.32;;;;;;;25.41;39.61;100743.44;1824117;78;27544;-68
2022/06/15 10:26:47;;;;;;;3.83;1.50;;;;;;;25.93;39.07;100729.75;1823813;77;25651;-68
2022/06/15 10:29:22;;;;;;;2.35;1.30;;;;;;;26.35;38.51;100732.72;1824124;78;25652;-69
2022/06/15 10:32:12;;;;;;;2.77;1.35;;;;;;;26.57;38.11;100733.34;1823893;78;25663;-68
2022/06/15 10:34:59;;;;;;;2.12;1.52;;;;;;;26.60;37.53;100731.15;1824226;78;25609;-69
2022/06/15 10:37:48;;;;;;;4.17;1.60;;;;;;;26.43;37.34;100731.47;1814666;78;27677;-68
2022/06/15 10:40:37;;;;;;;3.70;1.57;;;;;;;26.27;37.09;100724.45;1823790;78;25905;-69
2022/06/15 10:43:18;;;;;;;2.98;1.50;;;;;;;26.06;36.73;100718.44;1823684;78;26036;-69
2022/06/15 10:45:59;;;;;;;4.17;1.57;;;;;;;26.00;37.97;100718.69;1823524;78;25691;-69
2022/06/15 10:48:36;;;;;;;3.55;1.52;;;;;;;26.06;38.02;100720.42;1823331;78;25594;-68
2022/06/15 10:51:17;;;;;;;1.35;1.10;;;;;;;26.03;37.83;100719.27;1823115;78;27459;-69
2022/06/15 10:54:23;;;;;;;5.10;1.60;;;;;;;25.93;37.67;100720.66;1821891;78;26246;-68
2022/06/15 11:02:31;;;;;;;1.85;1.40;;;;;;;24.75;36.90;100726.70;1823087;78;25590;-71
2022/06/15 11:05:06;;;;;;;5.40;1.80;;;;;;;24.39;37.73;100731.59;1822817;78;27461;-71
2022/06/15 11:07:45;;;;;;;2.35;1.55;;;;;;;24.22;38.27;100727.61;1817835;78;25731;-71
2022/06/15 11:10:26;;;;;;;4.28;1.60;;;;;;;24.05;38.55;100728.37;1822065;78;25727;-71
2022/06/15 11:13:38;;;;;;;2.92;1.60;;;;;;;24.01;39.15;100727.58;1801994;78;25779;-71
2022/06/15 11:19:18;;;;;;;2.55;1.45;;;;;;;24.78;40.26;100714.85;1712543;83;28252;-71
2022/06/15 11:22:01;;;;;;;2.20;1.35;;;;;;;25.28;38.76;100713.39;1712761;83;25828;-71
2022/06/15 11:24:51;;;;;;;4.40;1.75;;;;;;;25.27;38.45;100711.83;1712690;83;25777;-71
2022/06/15 11:27:40;;;;;;;2.55;1.52;;;;;;;25.35;38.69;100720.32;1711733;83;26218;-72
2022/06/15 11:30:18;;;;;;;2.27;1.50;;;;;;;25.29;38.35;100726.66;1712595;83;26363;-71
2022/06/15 11:32:56;;;;;;;2.77;1.60;;;;;;;25.02;37.66;100724.91;1712705;83;27718;-70
2022/06/15 11:35:43;;;;;;;2.60;1.72;;;;;;;24.84;38.45;100724.31;1712631;83;25663;-70
2022/06/15 11:38:54;;;;;;;4.17;1.70;;;;;;;24.92;38.47;100716.81;1711367;83;25685;-70
2022/06/15 11:41:33;;;;;;;5.20;1.30;;;;;;;25.04;38.46;100716.39;1715569;83;25695;-70
2022/06/15 11:44:02;;;;;;;1.67;1.37;;;;;;;25.03;37.90;100718.98;1637408;87;25830;-71
2022/06/15 11:46:55;;;;;;;4.60;1.40;;;;;;;24.92;38.12;100728.66;1582575;89;28190;-71
2022/06/15 11:49:32;;;;;;;1.57;1.27;;;;;;;24.75;37.94;100718.41;1598346;89;25837;-71
2022/06/15 11:52:37;;;;;;;2.80;1.30;;;;;;;24.43;38.03;100711.66;1603530;89;25883;-72
2022/06/15 11:55:26;;;;;;;1.42;1.22;;;;;;;24.19;37.91;100717.94;1637307;87;25762;-70
2022/06/15 11:58:17;;;;;;;1.37;1.10;;;;;;;23.94;38.25;100717.30;1637475;87;25456;-70
2022/06/15 12:01:04;;;;;;;1.67;0.90;;;;;;;23.97;38.00;100718.47;1637523;87;27533;-71
2022/06/15 12:03:57;;;;;;;5.17;1.15;;;;;;;24.01;38.14;100716.53;1637369;87;25724;-71
2022/06/15 12:06:41;;;;;;;2.92;1.15;;;;;;;24.41;37.87;100704.94;1637281;87;25815;-72
2022/06/15 12:09:39;;;;;;;1.90;0.78;;;;;;;24.95;37.85;100698.82;1637240;87;25803;-71
2022/06/15 12:12:37;;;;;;;0.90;0.90;;;;;;;25.52;38.32;100695.72;1637345;87;25807;-71
2022/06/15 12:15:24;;;;;;;1.60;0.98;;;;;;;26.01;37.00;100691.75;1663228;85;27469;-70
2022/06/15 12:17:58;;;;;;;2.60;1.30;;;;;;;25.97;36.49;100695.94;1697580;84;25772;-70
2022/06/15 12:20:51;;;;;;;4.00;1.27;;;;;;;25.77;36.23;100701.15;1712944;83;25792;-70
2022/06/15 12:23:41;;;;;;;4.30;1.55;;;;;;;25.61;36.09;100703.02;1692540;84;25822;-70
2022/06/15 12:26:39;;;;;;;2.15;1.20;;;;;;;25.44;36.38;100696.96;1692747;84;25601;-70
2022/06/15 12:29:51;;;;;;;3.40;1.30;;;;;;;25.20;36.68;100706.87;1692699;84;27504;-72
2022/06/15 12:32:34;;;;;;;1.52;0.82;;;;;;;25.19;36.45;100708.85;1712743;83;25676;-70
2022/06/15 12:35:32;;;;;;;0.78;0.78;;;;;;;25.15;36.38;100705.31;1636029;87;25798;-70
2022/06/15 12:38:03;;;;;;;3.70;1.40;;;;;;;25.34;36.29;100712.41;1642132;87;25807;-71
2022/06/15 12:40:39;;;;;;;3.80;1.47;;;;;;;25.30;36.81;100707.46;1617225;88;25796;-71
2022/06/15 12:43:20;;;;;;;3.15;1.57;;;;;;;25.55;37.46;100706.00;1643022;87;27432;-71
2022/06/15 12:45:54;;;;;;;8.28;1.50;;;;;;;25.86;37.15;100699.32;1643742;87;25889;-72
2022/06/15 12:48:47;;;;;;;2.55;1.30;;;;;;;26.28;37.46;100696.91;1643527;87;25749;-72
2022/06/15 12:51:40;;;;;;;1.95;1.00;;;;;;;26.51;36.89;100699.72;1643830;87;25868;-71
2022/06/15 12:54:20;;;;;;;5.53;1.27;;;;;;;26.55;36.07;100699.69;1643390;87;25684;-71
2022/06/15 12:57:04;;;;;;;1.67;1.20;;;;;;;26.71;36.27;100697.79;1643243;87;27437;-71
2022/06/15 12:59:38;;;;;;;6.95;1.60;;;;;;;26.99;35.58;100701.68;1630307;87;25777;-70
2022/06/15 13:02:16;;;;;;;1.87;1.02;;;;;;;27.10;36.05;100692.45;1611243;89;26387;-71
2022/06/15 13:05:06;;;;;;;5.42;1.62;;;;;;;27.27;35.68;100698.40;1611578;89;25975;-71
2022/06/15 13:07:36;;;;;;;9.18;1.98;;;;;;;26.97;34.57;100705.47;1611858;89;25830;-71
2022/06/15 13:10:20;;;;;;;4.72;1.50;;;;;;;26.27;35.08;100698.70;1611553;89;27489;-71
2022/06/15 13:13:00;;;;;;;3.47;1.87;;;;;;;25.67;35.35;100695.06;1679995;84;25714;-72
2022/06/15 13:15:35;;;;;;;3.55;1.70;;;;;;;25.05;36.21;100699.22;1690170;84;25758;-72
2022/06/15 13:18:09;;;;;;;3.42;1.50;;;;;;;24.51;36.90;100696.45;1690440;84;25735;-71
2022/06/15 13:20:50;;;;;;;3.85;2.05;;;;;;;24.14;37.71;100698.98;1717833;83;25658;-72
2022/06/15 13:23:30;;;;;;;7.53;5.70;;;;;;;23.82;38.27;100694.16;1689173;84;28243;-72
2022/06/15 13:26:06;;;;;;;2.47;1.72;;;;;;;23.64;39.18;100691.32;1717942;83;25797;-72
2022/06/15 13:28:46;;;;;;;5.37;1.45;;;;;;;23.57;39.49;100697.60;1690203;84;25687;-72
2022/06/15 13:31:34;;;;;;;3.33;1.37;;;;;;;23.42;39.96;100709.76;1717949;83;25702;-72
2022/06/15 13:34:05;;;;;;;2.70;1.37;;;;;;;23.47;40.13;100698.34;1690499;84;25727;-71
2022/06/15 13:36:33;;;;;;;4.65;1.50;;;;;;;23.66;39.61;100683.43;1740340;81;27485;-71
2022/06/15 13:38:59;;;;;;;1.98;1.12;;;;;;;23.93;40.21;100691.45;1741557;82;25731;-72
2022/06/15 13:41:30;;;;;;;2.27;1.65;;;;;;;24.31;39.92;100687.75;1725519;82;26302;-72
2022/06/15 13:44:02;;;;;;;3.95;1.50;;;;;;;24.70;40.01;100688.37;1740817;81;25718;-72
2022/06/15 13:46:35;;;;;;;4.25;1.40;;;;;;;25.06;39.64;100683.56;1768157;81;25631;-72
2022/06/15 13:49:14;;;;;;;2.80;1.20;;;;;;;25.23;38.04;100681.94;1768016;81;27524;-71
2022/06/15 13:51:47;;;;;;;4.80;1.62;;;;;;;25.11;37.18;100687.31;1767917;81;25655;-70
2022/06/15 13:54:52;;;;;;;2.60;1.22;;;;;;;24.64;37.35;100685.23;1767900;81;25748;-71
2022/06/15 13:57:54;;;;;;;2.58;1.52;;;;;;;24.48;38.44;100686.18;1767826;80;25693;-72
2022/06/15 14:00:41;;;;;;;5.72;1.50;;;;;;;24.56;38.56;100678.12;1767160;81;25746;-70
2022/06/15 14:03:30;;;;;;;2.85;1.80;;;;;;;24.52;38.65;100675.90;1768067;81;27542;-70
2022/06/15 14:06:17;;;;;;;3.58;1.77;;;;;;;24.39;38.52;100678.28;1767776;80;25708;-71
2022/06/15 14:09:07;;;;;;;5.25;1.60;;;;;;;24.19;38.77;100664.05;1768120;80;25641;-70
2022/06/15 14:12:00;;;;;;;4.10;1.37;;;;;;;24.10;39.08;100664.44;1767693;80;25739;-70
2022/06/15 14:15:03;;;;;;;2.98;1.40;;;;;;;24.10;39.17;100669.18;1767261;80;25625;-71
2022/06/15 14:17:49;;;;;;;3.05;1.10;;;;;;;24.13;38.91;100671.95;1720628;83;27631;-70
2022/06/15 14:20:26;;;;;;;16.77;8.88;;;;;;;24.05;38.08;100673.89;1699453;84;25654;-71
2022/06/15 14:22:58;;;;;;;3.50;1.52;;;;;;;24.00;38.66;100669.35;1720592;83;25869;-70
2022/06/15 14:25:25;;;;;;;2.80;1.40;;;;;;;24.13;38.78;100676.09;1699889;84;26342;-70
2022/06/15 14:27:56;;;;;;;4.80;1.50;;;;;;;24.24;38.41;100676.88;1721098;83;25675;-70
2022/06/15 14:30:30;;;;;;;3.40;1.60;;;;;;;24.23;38.65;100670.38;1699673;84;28422;-72
2022/06/15 14:33:07;;;;;;;3.62;1.80;;;;;;;24.31;38.82;100665.03;1720514;83;25791;-71
2022/06/15 14:35:34;;;;;;;3.90;1.70;;;;;;;24.38;38.64;100671.97;1719190;83;25696;-71
2022/06/15 14:38:05;;;;;;;4.62;1.70;;;;;;;24.37;38.49;100666.23;1699832;84;25702;-71
2022/06/15 14:40:40;;;;;;;3.12;2.08;;;;;;;24.15;38.37;100664.05;1715095;83;25825;-71
2022/06/15 14:43:11;;;;;;;1.67;1.57;;;;;;;23.95;38.68;100671.12;1699998;84;27690;-70
2022/06/15 14:45:43;;;;;;;3.10;1.80;;;;;;;23.75;39.11;100662.35;1720753;83;25770;-70
2022/06/15 14:48:27;;;;;;;5.05;1.80;;;;;;;23.57;39.54;100660.93;1720161;83;25767;-66
2022/06/15 14:51:14;;;;;;;3.90;1.87;;;;;;;23.45;39.72;100665.61;1699942;84;25706;-66
2022/06/15 14:54:09;;;;;;;3.05;1.72;;;;;;;23.20;40.32;100667.46;1724974;81;25861;-67
2022/06/15 14:56:53;;;;;;;5.17;1.98;;;;;;;23.05;40.59;100663.20;1768226;80;27558;-67
2022/06/15 14:59:27;;;;;;;2.12;1.80;;;;;;;22.99;41.09;100675.79;1768214;80;25590;-67
2022/06/15 15:02:02;;;;;;;3.05;1.92;;;;;;;22.92;41.38;100673.77;1768244;80;25698;-68
2022/06/15 15:04:37;;;;;;;4.15;2.12;;;;;;;22.91;41.31;100672.78;1767986;81;25669;-68
2022/06/15 15:10:27;;;;;;;3.72;1.60;;;;;;;22.81;41.58;100670.73;1768279;81;27593;-67
2022/06/15 15:12:57;;;;;;;3.60;1.85;;;;;;;22.73;41.31;100665.75;1768247;81;25618;-67
2022/06/15 15:15:23;;;;;;;3.90;2.10;;;;;;;22.66;41.71;100662.38;1766726;80;25634;-67
2022/06/15 15:18:01;;;;;;;2.55;1.75;;;;;;;22.63;41.47;100663.14;1768272;80;25594;-67
2022/06/15 15:20:38;;;;;;;3.52;2.00;;;;;;;22.57;41.33;100666.03;1765151;80;25600;-68
2022/06/15 15:23:06;;;;;;;3.75;1.40;;;;;;;22.50;41.63;100659.09;1766976;80;27575;-66
2022/06/15 15:25:50;;;;;;;3.40;1.95;;;;;;;22.50;41.26;100661.25;1768153;80;25730;-66
2022/06/15 15:34:09;;;;;;;1.77;1.60;;;;;;;22.51;41.43;100658.72;1767947;80;26216;-67
2022/06/15 15:39:43;;;;;;;2.95;2.10;;;;;;;22.53;41.52;100653.61;1768055;80;26326;-67
2022/06/15 15:42:15;;;;;;;4.70;2.55;;;;;;;22.49;41.86;100654.74;1768444;80;25659;-69
2022/06/15 15:44:43;;;;;;;3.17;1.80;;;;;;;22.43;42.03;100656.28;1768210;80;25740;-66
2022/06/15 15:47:13;;;;;;;3.52;2.12;;;;;;;22.36;42.24;100649.53;1768243;80;25476;-64
2022/06/15 15:49:41;;;;;;;2.67;2.27;;;;;;;22.31;42.59;100644.37;1768189;80;28553;-65
2022/06/15 15:52:12;;;;;;;6.28;2.08;;;;;;;22.32;42.82;100646.53;1746672;80;25755;-65
2022/06/15 15:54:39;;;;;;;3.87;2.33;;;;;;;22.35;42.88;100649.91;1744670;80;25678;-65
2022/06/15 15:57:10;;;;;;;3.52;2.05;;;;;;;22.37;43.09;100651.69;1744782;82;26306;-65
2022/06/15 15:59:40;;;;;;;3.50;2.10;;;;;;;22.36;42.78;100649.53;1744530;82;25665;-65
2022/06/15 16:02:11;;;;;;;1.95;1.60;;;;;;;22.35;42.82;100656.20;1744657;82;27759;-65
2022/06/15 16:04:38;;;;;;;3.45;2.33;;;;;;;22.34;42.72;100653.86;1744103;81;25645;-67
2022/06/15 16:07:15;;;;;;;4.72;2.00;;;;;;;22.37;42.77;100647.56;1744490;82;25710;-67
2022/06/15 16:09:40;;;;;;;2.55;1.82;;;;;;;22.46;42.56;100651.37;1744719;82;25685;-65
2022/06/15 16:12:08;;;;;;;4.17;1.75;;;;;;;22.43;42.12;100647.42;1744765;82;25689;-65
2022/06/15 16:14:34;;;;;;;6.95;2.10;;;;;;;22.44;42.22;100653.16;1744491;82;27639;-66
2022/06/15 16:17:02;;;;;;;3.35;1.30;;;;;;;22.49;41.97;100650.61;1744756;82;25637;-65
2022/06/15 16:19:29;;;;;;;2.72;1.60;;;;;;;22.54;41.67;100644.74;1744734;82;25745;-67
2022/06/15 16:21:55;;;;;;;2.80;1.50;;;;;;;22.63;42.00;100651.30;1744479;82;25674;-65
2022/06/15 16:24:22;;;;;;;3.33;1.50;;;;;;;22.74;41.83;100643.91;1744815;82;25620;-66
2022/06/15 16:26:49;;;;;;;2.65;1.50;;;;;;;22.82;41.41;100644.76;1744805;82;29735;-65
2022/06/15 16:29:15;;;;;;;4.08;2.45;;;;;;;22.87;41.44;100641.05;1744565;82;25637;-65
2022/06/15 16:31:41;;;;;;;5.28;1.87;;;;;;;22.92;41.54;100646.80;1744683;81;25562;-66
2022/06/15 16:34:08;;;;;;;3.33;1.47;;;;;;;22.96;41.32;100645.44;1744553;82;27627;-66
2022/06/15 16:36:35;;;;;;;5.92;2.00;;;;;;;22.99;41.17;100641.31;1744606;82;25681;-67
2022/06/15 16:39:04;;;;;;;5.87;1.90;;;;;;;23.02;41.46;100644.69;1745204;81;27470;-66
2022/06/15 16:41:31;;;;;;;3.63;2.40;;;;;;;23.07;40.96;100642.16;1753774;81;25655;-66
2022/06/15 16:43:57;;;;;;;4.87;2.25;;;;;;;22.99;40.67;100643.29;1753712;81;25273;-67
2022/06/15 16:46:28;;;;;;;6.10;2.65;;;;;;;22.82;40.78;100640.63;1753376;81;26189;-67
2022/06/15 16:48:56;;;;;;;11.33;4.78;;;;;;;22.65;41.04;100636.57;1753685;81;25740;-67
2022/06/15 16:51:27;;;;;;;6.05;2.90;;;;;;;22.54;41.44;100635.09;1775800;80;27261;-66
2022/06/15 16:53:54;;;;;;;18.02;4.75;;;;;;;22.47;41.53;100629.53;1784580;79;25758;-65
2022/06/15 16:56:34;;;;;;;6.35;2.95;;;;;;;22.38;41.65;100630.64;1761395;81;25678;-66
2022/06/15 16:59:05;;;;;;;4.80;2.42;;;;;;;22.31;41.83;100633.95;1775672;80;25702;-65
2022/06/15 17:01:32;;;;;;;11.85;3.12;;;;;;;22.18;41.99;100632.80;1761508;81;25466;-65
2022/06/15 17:03:58;;;;;;;4.87;2.15;;;;;;;22.05;42.09;100630.72;1775805;80;27711;-64
2022/06/15 17:06:25;;;;;;;13.18;4.45;;;;;;;21.92;42.50;100631.00;1761197;81;25724;-67
2022/06/15 17:08:51;;;;;;;6.50;2.90;;;;;;;21.81;42.85;100628.70;1775709;80;25586;-66
2022/06/15 17:11:18;;;;;;;9.33;4.25;;;;;;;21.74;43.27;100628.64;1761417;81;25637;-66
2022/06/15 17:13:46;;;;;;;5.42;2.50;;;;;;;21.73;43.67;100640.24;1775815;80;25722;-66
2022/06/15 17:16:13;;;;;;;4.78;2.20;;;;;;;21.68;43.75;100632.91;1761466;81;28225;-66
2022/06/15 17:18:40;;;;;;;4.30;2.60;;;;;;;21.63;44.10;100630.69;1775447;80;26120;-67
2022/06/15 17:21:07;;;;;;;3.83;2.22;;;;;;;21.56;44.17;100636.13;1761468;81;25495;-67
2022/06/15 17:23:38;;;;;;;5.00;2.40;;;;;;;21.49;44.06;100638.80;1775721;80;26132;-66
2022/06/15 17:26:09;;;;;;;5.03;2.37;;;;;;;21.40;44.10;100639.63;1761596;81;25701;-65
2022/06/15 17:28:36;;;;;;;2.85;1.80;;;;;;;21.26;44.59;100634.14;1775701;80;28096;-66
2022/06/15 17:31:07;;;;;;;5.42;2.40;;;;;;;21.14;44.64;100630.85;1761549;81;27367;-66
2022/06/15 17:33:34;;;;;;;27.05;17.87;;;;;;;21.01;44.95;100635.21;1751587;80;25681;-68
2022/06/15 17:36:00;;;;;;;6.22;2.70;;;;;;;20.94;45.23;100629.59;1735857;81;26042;-67
2022/06/15 17:38:26;;;;;;;6.70;2.33;;;;;;;20.85;45.22;100634.58;1761547;81;25595;-68
2022/06/15 17:40:52;;;;;;;8.55;2.90;;;;;;;20.71;45.50;100633.20;1759333;80;27453;-68
2022/06/15 17:43:18;;;;;;;5.00;2.40;;;;;;;20.61;45.74;100629.67;1758460;81;25779;-68
2022/06/15 17:45:46;;;;;;;5.55;2.33;;;;;;;20.51;45.85;100630.30;1758516;81;25704;-69
2022/06/15 17:48:15;;;;;;;3.10;2.42;;;;;;;20.42;46.25;100629.19;1758433;81;26224;-69
2022/06/15 17:50:43;;;;;;;4.45;2.22;;;;;;;20.32;46.35;100629.22;1758738;81;25632;-68
2022/06/15 17:53:11;;;;;;;5.95;2.25;;;;;;;20.25;46.47;100625.58;1758593;81;27912;-68
2022/06/15 17:55:39;;;;;;;4.62;2.70;;;;;;;20.19;46.79;100629.19;1758599;81;25621;-69
2022/06/15 17:58:06;;;;;;;4.87;2.40;;;;;;;20.09;46.93;100621.56;1758759;81;25725;-68
2022/06/15 18:00:34;;;;;;;3.77;2.60;;;;;;;20.01;47.24;100623.41;1758670;81;25752;-68
2022/06/15 18:03:02;;;;;;;7.15;2.37;;;;;;;19.98;47.47;100628.83;1758854;81;25571;-68
2022/06/15 18:05:28;;;;;;;13.40;8.05;;;;;;;19.92;47.70;100621.45;1758756;81;28421;-69
2022/06/15 18:07:55;;;;;;;5.58;3.37;;;;;;;19.85;47.75;100626.82;1758548;81;25602;-69
2022/06/15 18:10:21;;;;;;;5.03;2.45;;;;;;;19.84;47.98;100629.37;1758784;81;25666;-68
2022/06/15 18:12:48;;;;;;;2.55;2.35;;;;;;;19.84;48.45;100625.25;1758891;81;26093;-68
2022/06/15 18:15:19;;;;;;;4.47;2.52;;;;;;;19.81;48.46;100619.89;1758795;81;25708;-68
2022/06/15 18:17:50;;;;;;;3.45;2.60;;;;;;;19.82;48.66;100624.23;1758642;81;27518;-68
2022/06/15 18:20:21;;;;;;;2.87;1.87;;;;;;;19.79;48.74;100620.84;1758527;81;25443;-68
2022/06/15 18:22:48;;;;;;;14.75;9.85;;;;;;;19.77;48.67;100623.16;1757686;81;25638;-69
2022/06/15 18:25:17;;;;;;;18.77;11.45;;;;;;;19.75;49.00;100624.08;1758597;81;26020;-68
2022/06/15 18:27:43;;;;;;;6.12;3.80;;;;;;;19.75;49.30;100626.27;1775687;80;25733;-68
2022/06/15 18:30:14;;;;;;;7.60;3.30;;;;;;;19.74;49.34;100632.09;1758810;81;27578;-68
2022/06/15 18:32:45;;;;;;;5.87;3.33;;;;;;;19.71;49.36;100630.84;1775451;80;26277;-68
2022/06/15 18:35:16;;;;;;;7.42;4.00;;;;;;;19.69;49.46;100631.01;1758644;81;25789;-67
2022/06/15 18:37:44;;;;;;;6.35;3.42;;;;;;;19.67;49.77;100634.70;1775600;80;25599;-69
2022/06/15 18:40:14;;;;;;;5.80;3.80;;;;;;;19.65;49.81;100634.25;1758870;81;25728;-70
2022/06/15 18:42:43;;;;;;;8.40;5.00;;;;;;;19.59;49.77;100633.16;1775559;80;27444;-69
2022/06/15 18:47:56;;;;;;;7.17;4.67;;;;;;;19.52;49.78;100634.99;1775624;80;25698;-68
2022/06/15 18:50:26;;;;;;;5.87;4.22;;;;;;;19.48;49.99;100641.78;1758261;81;27784;-68
2022/06/15 18:52:59;;;;;;;7.90;3.40;;;;;;;19.42;50.01;100640.47;1775639;80;25716;-69
2022/06/15 18:55:30;;;;;;;4.53;3.15;;;;;;;19.37;49.89;100642.91;1758910;81;27446;-69
2022/06/15 18:58:00;;;;;;;3.47;2.55;;;;;;;19.31;50.15;100644.95;1775512;80;25394;-68
2022/06/15 19:00:30;;;;;;;2.90;2.67;;;;;;;19.23;50.40;100648.89;1758476;81;26293;-68
2022/06/15 19:02:57;;;;;;;9.13;3.40;;;;;;;19.15;50.48;100650.47;1775536;80;25597;-70
2022/06/15 19:05:29;;;;;;;7.25;5.58;;;;;;;19.07;50.28;100660.50;1758763;81;25687;-70
2022/06/15 19:08:02;;;;;;;7.60;4.90;;;;;;;18.98;50.57;100659.30;1775618;80;27489;-69
2022/06/15 19:10:33;;;;;;;6.00;3.33;;;;;;;18.88;51.13;100658.48;1758631;81;25812;-69
2022/06/15 19:12:59;;;;;;;5.72;3.60;;;;;;;18.77;51.21;100665.66;1749025;80;25636;-69
2022/06/15 19:15:25;;;;;;;6.60;3.95;;;;;;;18.66;51.65;100668.94;1758737;81;25685;-68
2022/06/15 19:17:51;;;;;;;7.12;5.67;;;;;;;18.55;52.17;100670.61;1758168;80;25721;-68
2022/06/15 19:20:17;;;;;;;6.00;4.20;;;;;;;18.43;52.33;100668.75;1758753;81;27466;-68
2022/06/15 19:22:44;;;;;;;6.92;3.58;;;;;;;18.35;52.61;100666.19;1758642;81;25832;-67
2022/06/15 19:25:12;;;;;;;4.85;3.08;;;;;;;18.24;52.84;100670.03;1758585;81;25666;-68
2022/06/15 19:27:40;;;;;;;;;;;;;;;18.13;52.93;100666.99;1717240;82;25641;-68
2022/06/15 19:30:10;;;;;;;4.65;3.40;;;;;;;18.01;53.11;100673.91;1744861;82;26201;-68
2022/06/15 19:32:40;;;;;;;4.20;3.67;;;;;;;17.89;53.53;100681.05;1758339;81;27640;-69
2022/06/15 19:35:16;;;;;;;5.65;3.52;;;;;;;17.79;53.33;100682.08;1758578;81;26173;-68
2022/06/15 19:37:40;;;;;;;27.05;16.87;;;;;;;17.69;53.64;100677.34;1758216;81;25604;-68
2022/06/15 19:42:51;;;;;;;12.43;8.45;;;;;;;17.47;53.98;100679.22;1587948;90;25751;-68
2022/06/15 19:45:17;;;;;;;4.47;3.80;;;;;;;17.36;53.91;100676.17;1588014;90;28161;-69
2022/06/15 19:47:44;;;;;;;3.72;3.35;;;;;;;17.25;54.46;100679.18;1587849;90;25659;-69
2022/06/15 19:50:13;;;;;;;6.28;3.47;;;;;;;17.16;54.40;100677.91;1588122;90;25754;-68
2022/06/15 19:52:40;;;;;;;;;;;;;;;17.07;54.94;100673.95;1590418;90;25772;-69
2022/06/15 19:55:08;;;;;;;5.78;3.70;;;;;;;16.97;55.04;100678.52;1588152;90;25709;-69
2022/06/15 19:57:34;;;;;;;5.92;3.45;;;;;;;16.87;55.13;100674.87;1588166;90;27599;-68
2022/06/15 20:00:00;;;;;;;5.53;3.90;;;;;;;16.78;55.59;100675.75;1588044;90;25794;-70
2022/06/15 20:02:27;;;;;;;6.62;3.17;;;;;;;16.68;55.99;100669.38;1587894;90;26352;-70
2022/06/15 20:04:53;;;;;;;9.03;4.12;;;;;;;16.61;55.65;100664.48;1588058;90;25522;-69
2022/06/15 20:07:23;;;;;;;6.25;3.70;;;;;;;16.55;55.95;100667.23;1588378;90;25863;-67
2022/06/15 20:09:51;;;;;;;6.00;3.55;;;;;;;16.50;56.19;100668.81;1588146;90;28253;-68
2022/06/15 20:12:19;;;;;;;7.33;4.00;;;;;;;16.45;56.28;100670.40;1588337;90;25799;-68
2022/06/15 20:14:45;;;;;;;8.70;4.22;;;;;;;16.40;56.45;100671.41;1588279;90;25748;-69
2022/06/15 20:17:12;;;;;;;6.97;4.87;;;;;;;16.32;57.07;100673.66;1588052;90;25839;-68
2022/06/15 20:19:46;;;;;;;10.98;6.42;;;;;;;16.27;57.75;100667.64;1606561;87;25808;-65
2022/06/15 20:22:24;;;;;;;18.92;10.32;;;;;;;16.21;57.64;100676.04;1647003;87;27572;-65
2022/06/15 20:24:52;;;;;;;17.17;10.78;;;;;;;16.16;57.91;100673.53;1646692;87;25745;-65
2022/06/15 20:27:19;;;;;;;24.23;14.13;;;;;;;16.11;58.23;100681.14;1647058;86;25748;-64
2022/06/15 20:29:51;;;;;;;23.38;14.15;;;;;;;16.04;58.13;100681.11;1646934;87;26313;-63
2022/06/15 20:32:22;;;;;;;22.58;14.00;;;;;;;15.97;58.25;100680.05;1654408;86;25601;-66
2022/06/15 20:34:46;;;;;;;21.73;14.70;;;;;;;15.90;58.72;100675.71;1648794;87;27510;-65
2022/06/15 20:37:12;;;;;;;21.93;14.20;;;;;;;15.82;59.02;100678.19;1668066;86;25652;-67
2022/06/15 20:39:38;;;;;;;25.97;13.55;;;;;;;15.75;59.16;100681.18;1649014;87;25859;-66
2022/06/15 20:42:08;;;;;;;17.00;12.23;;;;;;;15.65;59.41;100677.75;1668120;85;25676;-68
2022/06/15 20:44:34;;;;;;;16.05;11.95;;;;;;;15.61;59.48;100674.65;1649282;87;25611;-67
2022/06/15 20:47:05;;;;;;;11.60;8.95;;;;;;;15.57;59.88;100672.37;1667952;86;27596;-68
2022/06/15 20:49:33;;;;;;;12.05;7.80;;;;;;;15.51;60.31;100675.88;1649412;87;25848;-69
2022/06/15 20:52:05;;;;;;;11.43;7.03;;;;;;;15.45;60.25;100676.61;1649350;87;25704;-68
2022/06/15 20:54:30;;;;;;;7.62;6.78;;;;;;;15.44;60.18;100671.49;1668040;86;25823;-68
2022/06/15 20:56:56;;;;;;;10.35;8.10;;;;;;;15.41;60.77;100675.70;1649742;87;25634;-68
2022/06/15 20:59:36;;;;;;;9.80;7.15;;;;;;;15.38;61.05;100670.91;1649030;87;27705;-69
2022/06/15 21:02:05;;;;;;;;;;;;;;;15.35;61.29;100672.92;1670240;86;25775;-68
2022/06/15 21:04:31;;;;;;;11.18;7.00;;;;;;;15.34;61.24;100667.80;1619787;88;25735;-69
2022/06/15 21:07:02;;;;;;;12.82;6.90;;;;;;;15.31;61.55;100667.92;1667787;86;25549;-68
2022/06/15 21:09:31;;;;;;;7.35;6.58;;;;;;;15.28;61.26;100672.09;1621169;88;25509;-65
2022/06/15 21:17:38;;;;;;;10.20;7.15;;;;;;;15.13;62.50;100668.59;1667890;86;25574;-67
2022/06/15 21:20:15;;;;;;;7.08;6.40;;;;;;;15.03;62.56;100664.31;1621072;88;25723;-69
2022/06/15 21:22:46;;;;;;;7.40;6.70;;;;;;;14.93;62.63;100676.41;1668153;86;25428;-67
2022/06/15 21:25:16;;;;;;;8.78;6.83;;;;;;;14.81;62.08;100673.56;1621224;88;27557;-67
2022/06/15 21:27:47;;;;;;;11.08;9.50;;;;;;;14.74;62.74;100671.37;1668008;86;25941;-68
2022/06/15 21:30:13;;;;;;;11.85;10.63;;;;;;;14.69;62.33;100665.30;1621031;88;25516;-67
2022/06/15 21:32:40;;;;;;;12.95;10.23;;;;;;;14.61;62.46;100668.85;1668059;86;25670;-67
2022/06/15 21:35:07;;;;;;;10.05;8.50;;;;;;;14.52;62.56;100671.05;1649108;87;26284;-69
2022/06/15 21:37:34;;;;;;;7.12;6.42;;;;;;;14.47;63.15;100672.58;1668095;86;27726;-67
2022/06/15 21:40:00;;;;;;;8.83;6.37;;;;;;;14.41;63.23;100672.52;1620968;88;25650;-68
2022/06/15 21:42:27;;;;;;;7.92;5.67;;;;;;;14.32;63.62;100671.73;1668060;85;25993;-68
2022/06/15 21:44:58;;;;;;;7.37;5.87;;;;;;;14.27;63.54;100667.82;1649657;87;25524;-69
2022/06/15 21:47:25;;;;;;;5.50;5.00;;;;;;;14.22;63.29;100673.44;1649021;87;25589;-68
2022/06/15 21:49:52;;;;;;;7.03;4.83;;;;;;;14.17;63.61;100668.98;1667874;86;28115;-69
2022/06/15 21:52:21;;;;;;;7.08;5.50;;;;;;;14.15;64.34;100666.59;1621268;88;25730;-68
2022/06/15 21:54:48;;;;;;;5.50;5.00;;;;;;;14.11;64.50;100669.70;1668190;86;25464;-68
2022/06/15 21:57:14;;;;;;;6.47;5.12;;;;;;;14.06;64.55;100665.79;1621265;88;25616;-68
2022/06/15 21:59:40;;;;;;;9.15;4.95;;;;;;;14.03;65.01;100664.28;1668207;86;25486;-68
2022/06/15 22:02:08;;;;;;;7.40;4.40;;;;;;;13.99;65.13;100669.57;1649703;87;27571;-69
2022/06/15 22:04:35;;;;;;;7.97;4.90;;;;;;;13.97;64.94;100669.09;1649177;87;25453;-68
2022/06/15 22:07:01;;;;;;;5.62;4.92;;;;;;;13.96;64.79;100668.31;1668175;86;25711;-68